Time;durP1;ratioP1;P1;durP2;ratioP2;P2;SDS_P1;SDS_P2;PMS_P1;PMS_P2;Temp;Humidity;BMP_temperature;BMP_pressure;BME280_temperature;BME280_humidity;BME280_pressure;Samples;Min_cycle;Max_cycle;Signal;HPM_P1;HPM_P2
2023/08/27 00:01:17;;;;;;;19.43;18.40;;;;;;;;;;5092967;28;20568;-75
2023/08/27 00:03:44;;;;;;;20.30;19.10;;;;;;;;;;5094386;28;20473;-75
2023/08/27 00:06:11;;;;;;;20.77;19.67;;;;;;;;;;5094783;28;20448;-76
2023/08/27 00:08:38;;;;;;;21.30;19.57;;;;;;;;;;5093993;28;20460;-76
2023/08/27 00:11:05;;;;;;;20.10;19.10;;;;;;;;;;5093822;28;20447;-75
2023/08/27 00:13:33;;;;;;;20.37;19.27;;;;;;;;;;5096471;28;20517;-76
2023/08/27 00:16:01;;;;;;;20.83;19.73;;;;;;;;;;5094675;28;20456;-75
2023/08/27 00:18:28;;;;;;;20.50;19.13;;;;;;;;;;5095037;28;20431;-75
2023/08/27 00:20:55;;;;;;;20.40;19.23;;;;;;;;;;5093756;28;20453;-76
2023/08/27 00:23:23;;;;;;;20.10;19.00;;;;;;;;;;5096223;28;20472;-75
2023/08/27 00:25:50;;;;;;;20.10;19.00;;;;;;;;;;5093752;28;20423;-75
2023/08/27 00:28:17;;;;;;;20.63;19.53;;;;;;;;;;5093881;28;20419;-75
2023/08/27 00:30:44;;;;;;;21.23;19.63;;;;;;;;;;5093274;28;20452;-76
2023/08/27 00:33:12;;;;;;;20.53;19.27;;;;;;;;;;5093385;28;20465;-76
2023/08/27 00:35:42;;;;;;;20.40;19.37;;;;;;;;;;5093969;28;20532;-76
2023/08/27 00:38:09;;;;;;;23.63;21.53;;;;;;;;;;5094195;28;20451;-75
2023/08/27 00:40:36;;;;;;;20.27;19.07;;;;;;;;;;5094339;28;20959;-75
2023/08/27 00:43:04;;;;;;;20.63;19.50;;;;;;;;;;5095431;28;20987;-76
2023/08/27 00:45:31;;;;;;;20.27;19.17;;;;;;;;;;5095070;28;20411;-76
2023/08/27 00:47:58;;;;;;;20.10;19.00;;;;;;;;;;5095364;28;20433;-75
2023/08/27 00:50:27;;;;;;;20.83;19.50;;;;;;;;;;5093625;28;20445;-75
2023/08/27 00:52:54;;;;;;;20.57;19.07;;;;;;;;;;5095291;28;20446;-76
2023/08/27 00:55:21;;;;;;;20.17;19.17;;;;;;;;;;5096360;28;20959;-76
2023/08/27 00:57:49;;;;;;;20.73;19.57;;;;;;;;;;5094241;28;20447;-76
2023/08/27 01:00:16;;;;;;;20.00;19.00;;;;;;;;;;5093007;28;20493;-75
2023/08/27 01:02:43;;;;;;;21.00;19.70;;;;;;;;;;5095345;28;20487;-75
2023/08/27 01:05:11;;;;;;;21.10;19.80;;;;;;;;;;5095005;28;20456;-76
2023/08/27 01:07:41;;;;;;;21.10;19.70;;;;;;;;;;5092438;28;20813;-75
2023/08/27 01:10:13;;;;;;;20.40;19.23;;;;;;;;;;5091731;28;20425;-75
2023/08/27 01:12:44;;;;;;;20.73;19.43;;;;;;;;;;5092290;28;20808;-76
2023/08/27 01:15:13;;;;;;;21.40;20.00;;;;;;;;;;5092319;28;20475;-75
2023/08/27 01:17:41;;;;;;;20.93;19.47;;;;;;;;;;5092561;28;20476;-75
2023/08/27 01:20:09;;;;;;;20.30;19.20;;;;;;;;;;5091386;28;20449;-76
2023/08/27 01:22:38;;;;;;;19.97;18.87;;;;;;;;;;5090669;28;20464;-76
2023/08/27 01:25:06;;;;;;;21.17;19.97;;;;;;;;;;5092496;28;20421;-75
2023/08/27 01:27:37;;;;;;;20.90;19.70;;;;;;;;;;5092266;28;20476;-76
2023/08/27 01:30:09;;;;;;;20.60;19.40;;;;;;;;;;5091714;28;20499;-76
2023/08/27 01:32:38;;;;;;;21.30;20.10;;;;;;;;;;5092010;28;20960;-75
2023/08/27 01:35:06;;;;;;;20.43;19.30;;;;;;;;;;5092452;28;20527;-76
2023/08/27 01:37:33;;;;;;;20.87;19.67;;;;;;;;;;5092185;28;21066;-76
2023/08/27 01:40:05;;;;;;;20.43;19.27;;;;;;;;;;5091702;28;20449;-75
2023/08/27 01:42:33;;;;;;;20.83;19.70;;;;;;;;;;5092030;28;20501;-75
2023/08/27 01:45:00;;;;;;;21.30;20.00;;;;;;;;;;5092023;28;20444;-76
2023/08/27 01:47:27;;;;;;;20.30;19.20;;;;;;;;;;5092163;28;20452;-76
2023/08/27 01:49:54;;;;;;;21.40;20.20;;;;;;;;;;5091462;28;20804;-76
2023/08/27 01:52:21;;;;;;;20.43;19.33;;;;;;;;;;5095737;28;20472;-75
2023/08/27 01:54:48;;;;;;;20.50;19.40;;;;;;;;;;5096504;28;20480;-76
2023/08/27 01:57:16;;;;;;;21.47;20.20;;;;;;;;;;5096373;28;20445;-76
2023/08/27 01:59:44;;;;;;;21.67;20.47;;;;;;;;;;5095666;28;20482;-77
2023/08/27 02:02:11;;;;;;;21.13;19.93;;;;;;;;;;5096801;28;20466;-75
2023/08/27 02:04:38;;;;;;;21.40;20.30;;;;;;;;;;5095813;28;20998;-75
2023/08/27 02:07:05;;;;;;;21.43;20.13;;;;;;;;;;5096872;28;20426;-76
2023/08/27 02:09:32;;;;;;;21.17;19.93;;;;;;;;;;5096399;28;20427;-75
2023/08/27 02:11:59;;;;;;;21.23;20.03;;;;;;;;;;5095369;28;20423;-75
2023/08/27 02:14:28;;;;;;;20.57;19.27;;;;;;;;;;5096081;28;20461;-75
2023/08/27 02:16:55;;;;;;;20.90;19.67;;;;;;;;;;5095838;28;20899;-76
2023/08/27 02:19:22;;;;;;;22.23;20.70;;;;;;;;;;5096150;28;20436;-76
2023/08/27 02:21:51;;;;;;;20.30;19.20;;;;;;;;;;5094276;28;20803;-75
2023/08/27 02:24:18;;;;;;;21.23;20.03;;;;;;;;;;5097233;28;20443;-76
2023/08/27 02:26:45;;;;;;;21.13;19.93;;;;;;;;;;5095953;28;20411;-75
2023/08/27 02:29:12;;;;;;;20.60;19.40;;;;;;;;;;5095921;28;20484;-76
2023/08/27 02:31:40;;;;;;;21.10;19.90;;;;;;;;;;5095066;28;20427;-75
2023/08/27 02:34:08;;;;;;;21.20;20.10;;;;;;;;;;5096126;28;20448;-76
2023/08/27 02:36:35;;;;;;;22.40;20.73;;;;;;;;;;5095674;28;20484;-76
2023/08/27 02:39:02;;;;;;;20.97;19.70;;;;;;;;;;5096329;28;20418;-75
2023/08/27 02:41:29;;;;;;;20.40;19.30;;;;;;;;;;5096092;28;20481;-75
2023/08/27 02:43:56;;;;;;;20.70;19.60;;;;;;;;;;5096205;28;20468;-75
2023/08/27 02:46:23;;;;;;;21.20;19.90;;;;;;;;;;5096743;28;20830;-76
2023/08/27 02:48:51;;;;;;;21.07;19.97;;;;;;;;;;5096688;28;20449;-76
2023/08/27 02:51:18;;;;;;;20.43;19.33;;;;;;;;;;5096172;28;20470;-75
2023/08/27 02:53:45;;;;;;;20.40;19.30;;;;;;;;;;5096164;28;20468;-76
2023/08/27 02:56:12;;;;;;;22.13;20.77;;;;;;;;;;5095993;28;20890;-76
2023/08/27 02:58:39;;;;;;;21.67;20.20;;;;;;;;;;5096017;28;20452;-76
2023/08/27 03:01:06;;;;;;;21.63;20.40;;;;;;;;;;5094913;28;20453;-75
2023/08/27 03:03:33;;;;;;;21.20;20.10;;;;;;;;;;5095124;28;20460;-75
2023/08/27 03:06:02;;;;;;;21.43;20.03;;;;;;;;;;5095919;28;21159;-76
2023/08/27 03:08:29;;;;;;;21.10;19.80;;;;;;;;;;5095973;28;20420;-75
2023/08/27 03:10:56;;;;;;;21.67;20.23;;;;;;;;;;5096475;28;20448;-76
2023/08/27 03:13:23;;;;;;;21.90;20.60;;;;;;;;;;5098185;28;20460;-75
2023/08/27 03:15:50;;;;;;;20.23;19.13;;;;;;;;;;5097441;28;20530;-76
2023/08/27 03:18:17;;;;;;;21.10;20.00;;;;;;;;;;5097216;28;20431;-75
2023/08/27 03:20:44;;;;;;;20.90;19.80;;;;;;;;;;5096211;28;20426;-76
2023/08/27 03:23:13;;;;;;;20.20;19.00;;;;;;;;;;5095197;28;20443;-76
2023/08/27 03:25:40;;;;;;;22.03;20.60;;;;;;;;;;5094243;28;20451;-75
2023/08/27 03:28:07;;;;;;;20.70;19.57;;;;;;;;;;5093924;28;20930;-76
2023/08/27 03:30:34;;;;;;;20.57;19.47;;;;;;;;;;5093737;28;20420;-76
2023/08/27 03:33:01;;;;;;;21.30;20.00;;;;;;;;;;5093904;28;20472;-76
2023/08/27 03:35:28;;;;;;;21.63;20.37;;;;;;;;;;5093885;28;21027;-77
2023/08/27 03:37:55;;;;;;;19.87;18.87;;;;;;;;;;5093898;28;20904;-76
2023/08/27 03:40:23;;;;;;;20.60;19.50;;;;;;;;;;5093417;28;20974;-75
2023/08/27 03:42:50;;;;;;;20.87;19.40;;;;;;;;;;5093970;28;20461;-76
2023/08/27 03:45:17;;;;;;;20.33;19.23;;;;;;;;;;5093792;28;20441;-77
2023/08/27 03:47:45;;;;;;;20.90;19.70;;;;;;;;;;5094121;28;20490;-76
2023/08/27 03:50:12;;;;;;;21.10;19.90;;;;;;;;;;5093138;28;21016;-76
2023/08/27 03:52:39;;;;;;;20.47;19.20;;;;;;;;;;5093819;28;20475;-75
2023/08/27 03:55:06;;;;;;;21.07;19.83;;;;;;;;;;5093583;28;20488;-75
2023/08/27 03:57:35;;;;;;;20.60;19.50;;;;;;;;;;5093651;28;21227;-76
2023/08/27 04:00:03;;;;;;;20.50;19.40;;;;;;;;;;5093036;28;20460;-76
2023/08/27 04:02:30;;;;;;;21.63;20.40;;;;;;;;;;5093445;28;20471;-77
2023/08/27 04:04:57;;;;;;;21.40;20.20;;;;;;;;;;5093552;28;20488;-76
2023/08/27 04:07:24;;;;;;;20.77;19.63;;;;;;;;;;5093723;28;20445;-77
2023/08/27 04:09:51;;;;;;;21.43;19.97;;;;;;;;;;5092946;28;20431;-76
2023/08/27 04:12:18;;;;;;;22.40;21.00;;;;;;;;;;5093463;28;20504;-76
2023/08/27 04:14:46;;;;;;;20.50;19.30;;;;;;;;;;5092904;28;20411;-76
2023/08/27 04:17:13;;;;;;;21.67;20.50;;;;;;;;;;5093030;28;20834;-76
2023/08/27 04:19:40;;;;;;;20.57;19.47;;;;;;;;;;5092981;28;20432;-76
2023/08/27 04:22:07;;;;;;;21.73;20.10;;;;;;;;;;5092073;28;20464;-75
2023/08/27 04:24:34;;;;;;;21.97;20.57;;;;;;;;;;5093212;28;20445;-75
2023/08/27 04:27:01;;;;;;;20.93;19.73;;;;;;;;;;5093123;28;20408;-75
2023/08/27 04:29:28;;;;;;;20.30;19.10;;;;;;;;;;5092929;28;20438;-75
2023/08/27 04:31:57;;;;;;;22.17;20.40;;;;;;;;;;5092286;28;20427;-76
2023/08/27 04:34:24;;;;;;;21.40;20.20;;;;;;;;;;5093242;28;20423;-76
2023/08/27 04:36:51;;;;;;;20.57;19.47;;;;;;;;;;5093048;28;20507;-76
2023/08/27 04:39:18;;;;;;;21.13;19.83;;;;;;;;;;5092867;28;20480;-76
2023/08/27 04:41:45;;;;;;;20.63;19.53;;;;;;;;;;5091985;28;20427;-75
2023/08/27 04:44:12;;;;;;;20.80;19.57;;;;;;;;;;5092774;28;20448;-76
2023/08/27 04:46:39;;;;;;;21.73;20.53;;;;;;;;;;5092877;28;20456;-76
2023/08/27 04:49:07;;;;;;;20.50;19.30;;;;;;;;;;5092476;28;20441;-76
2023/08/27 04:51:34;;;;;;;20.70;19.40;;;;;;;;;;5091894;28;20934;-76
2023/08/27 04:54:02;;;;;;;21.57;19.77;;;;;;;;;;5092565;28;20464;-76
2023/08/27 04:56:29;;;;;;;20.83;19.70;;;;;;;;;;5092469;28;20595;-76
2023/08/27 04:58:56;;;;;;;20.83;19.53;;;;;;;;;;5092380;28;20438;-76
2023/08/27 05:01:23;;;;;;;20.10;19.00;;;;;;;;;;5091909;28;20427;-75
2023/08/27 05:03:50;;;;;;;21.00;19.50;;;;;;;;;;5092410;28;20537;-75
2023/08/27 05:06:19;;;;;;;20.10;19.00;;;;;;;;;;5092287;28;20454;-75
2023/08/27 05:08:46;;;;;;;21.33;20.13;;;;;;;;;;5092364;28;20453;-75
2023/08/27 05:11:13;;;;;;;20.40;19.20;;;;;;;;;;5091622;28;20895;-75
2023/08/27 05:13:40;;;;;;;20.50;19.40;;;;;;;;;;5092108;28;20436;-75
2023/08/27 05:16:07;;;;;;;20.97;19.77;;;;;;;;;;5091999;28;20488;-76
2023/08/27 05:18:34;;;;;;;21.30;19.57;;;;;;;;;;5092254;28;20445;-76
2023/08/27 05:21:01;;;;;;;20.63;19.43;;;;;;;;;;5090271;28;21149;-75
2023/08/27 05:23:29;;;;;;;20.83;19.73;;;;;;;;;;5092217;28;20442;-76
2023/08/27 05:25:56;;;;;;;21.50;19.73;;;;;;;;;;5091823;28;20978;-76
2023/08/27 05:28:24;;;;;;;21.30;19.63;;;;;;;;;;5092178;28;20495;-76
2023/08/27 05:30:52;;;;;;;52.30;20.63;;;;;;;;;;5091241;28;20932;-76
2023/08/27 05:33:19;;;;;;;87.93;71.10;;;;;;;;;;5091835;28;20512;-76
2023/08/27 05:35:46;;;;;;;31.20;18.47;;;;;;;;;;5091986;28;20838;-76
2023/08/27 05:38:13;;;;;;;1999.90;999.90;;;;;;;;;;5092154;28;20424;-76
2023/08/27 05:40:42;;;;;;;1999.90;999.90;;;;;;;;;;5091794;28;20450;-75
2023/08/27 05:43:09;;;;;;;146.50;96.53;;;;;;;;;;5091823;28;20435;-75
2023/08/27 05:45:36;;;;;;;1999.90;999.90;;;;;;;;;;5091527;28;20448;-76
2023/08/27 05:48:03;;;;;;;487.83;319.63;;;;;;;;;;5091913;28;20859;-76
2023/08/27 05:50:30;;;;;;;57.53;23.40;;;;;;;;;;5091409;28;20448;-76
2023/08/27 05:52:57;;;;;;;65.83;28.33;;;;;;;;;;5091817;28;20468;-76
2023/08/27 05:55:24;;;;;;;59.27;26.20;;;;;;;;;;5091311;28;20491;-77
2023/08/27 05:57:53;;;;;;;73.67;38.17;;;;;;;;;;5091708;28;20495;-76
2023/08/27 06:00:20;;;;;;;58.27;24.10;;;;;;;;;;5090958;28;20463;-75
2023/08/27 06:02:47;;;;;;;60.93;26.63;;;;;;;;;;5091553;28;20493;-76
2023/08/27 06:05:14;;;;;;;54.90;23.60;;;;;;;;;;5091444;28;20490;-76
2023/08/27 06:07:41;;;;;;;65.57;28.30;;;;;;;;;;5091270;28;20440;-75
2023/08/27 06:10:09;;;;;;;67.30;29.07;;;;;;;;;;5091112;28;20448;-76
2023/08/27 06:12:36;;;;;;;66.33;26.70;;;;;;;;;;5091377;28;20556;-77
2023/08/27 06:15:05;;;;;;;72.30;32.17;;;;;;;;;;5091630;28;20441;-76
2023/08/27 06:17:32;;;;;;;62.97;23.60;;;;;;;;;;5091770;28;20568;-75
2023/08/27 06:19:59;;;;;;;49.03;21.93;;;;;;;;;;5091314;28;20448;-77
2023/08/27 06:22:26;;;;;;;48.93;21.73;;;;;;;;;;5090648;28;20480;-76
2023/08/27 06:24:53;;;;;;;62.77;24.53;;;;;;;;;;5092011;28;20433;-76
2023/08/27 06:27:20;;;;;;;61.97;24.57;;;;;;;;;;5091703;28;20452;-76
2023/08/27 06:29:47;;;;;;;62.37;23.60;;;;;;;;;;5090959;28;20475;-76
2023/08/27 06:32:16;;;;;;;59.57;22.73;;;;;;;;;;5092123;28;20443;-76
2023/08/27 06:34:43;;;;;;;58.13;22.00;;;;;;;;;;5091509;28;20488;-76
2023/08/27 06:37:10;;;;;;;59.33;22.00;;;;;;;;;;5092415;28;20966;-76
2023/08/27 06:39:37;;;;;;;61.33;21.83;;;;;;;;;;5095491;28;20437;-75
2023/08/27 06:42:04;;;;;;;55.70;20.43;;;;;;;;;;5095223;28;20430;-76
2023/08/27 06:44:31;;;;;;;48.07;20.60;;;;;;;;;;5095313;28;20448;-75
2023/08/27 06:46:58;;;;;;;47.80;20.97;;;;;;;;;;5095121;28;20425;-75
2023/08/27 06:49:27;;;;;;;49.47;20.33;;;;;;;;;;5095199;28;20453;-76
2023/08/27 06:51:54;;;;;;;49.23;20.77;;;;;;;;;;5094331;28;20441;-76
2023/08/27 06:54:21;;;;;;;48.50;20.87;;;;;;;;;;5094731;28;20444;-77
2023/08/27 06:56:48;;;;;;;48.30;21.37;;;;;;;;;;5094755;28;20466;-75
2023/08/27 06:59:15;;;;;;;45.00;19.63;;;;;;;;;;5095135;28;20452;-76
2023/08/27 07:01:42;;;;;;;91.80;36.83;;;;;;;;;;5093883;28;20442;-75
2023/08/27 07:04:09;;;;;;;38.30;19.20;;;;;;;;;;5094733;28;20440;-76
2023/08/27 07:06:38;;;;;;;33.57;19.63;;;;;;;;;;5094790;28;20429;-76
2023/08/27 07:09:05;;;;;;;32.53;19.60;;;;;;;;;;5094531;28;20542;-75
2023/08/27 07:11:33;;;;;;;34.33;20.17;;;;;;;;;;5094201;28;20518;-77
2023/08/27 07:14:00;;;;;;;31.60;19.60;;;;;;;;;;5094271;28;20951;-76
2023/08/27 07:16:27;;;;;;;34.53;19.60;;;;;;;;;;5094592;28;20451;-76
2023/08/27 07:18:54;;;;;;;32.00;19.97;;;;;;;;;;5094407;28;20441;-76
2023/08/27 07:21:21;;;;;;;32.20;18.93;;;;;;;;;;5092733;28;20444;-75
2023/08/27 07:23:50;;;;;;;55.83;21.90;;;;;;;;;;5094366;28;20465;-77
2023/08/27 07:26:17;;;;;;;55.30;21.80;;;;;;;;;;5094769;28;21249;-76
2023/08/27 07:28:44;;;;;;;56.20;22.40;;;;;;;;;;5094641;28;20479;-76
2023/08/27 07:31:12;;;;;;;56.17;22.47;;;;;;;;;;5094156;28;20423;-77
2023/08/27 07:33:39;;;;;;;56.40;22.00;;;;;;;;;;5094946;28;20481;-76
2023/08/27 07:36:06;;;;;;;52.23;21.00;;;;;;;;;;5094779;28;20444;-78
2023/08/27 07:38:33;;;;;;;55.67;21.37;;;;;;;;;;5094637;28;20452;-76
2023/08/27 07:41:02;;;;;;;52.17;20.60;;;;;;;;;;5094009;28;20455;-75
2023/08/27 07:43:29;;;;;;;54.30;20.33;;;;;;;;;;5094756;28;20442;-75
2023/08/27 07:45:56;;;;;;;50.30;20.40;;;;;;;;;;5095220;28;20452;-76
2023/08/27 07:48:23;;;;;;;49.70;21.60;;;;;;;;;;5094408;28;20441;-77
2023/08/27 07:50:51;;;;;;;50.17;20.87;;;;;;;;;;5095006;28;20887;-77
2023/08/27 07:53:18;;;;;;;45.17;20.13;;;;;;;;;;5094901;28;20469;-76
2023/08/27 07:55:45;;;;;;;44.80;19.47;;;;;;;;;;5095066;28;20910;-75
2023/08/27 07:58:14;;;;;;;41.03;19.30;;;;;;;;;;5094948;28;20484;-76
2023/08/27 08:00:41;;;;;;;38.27;19.67;;;;;;;;;;5094325;28;20503;-78
2023/08/27 08:03:08;;;;;;;36.67;19.13;;;;;;;;;;5095202;28;20468;-77
2023/08/27 08:05:35;;;;;;;37.10;19.80;;;;;;;;;;5097912;28;20441;-77
2023/08/27 08:08:02;;;;;;;39.23;20.53;;;;;;;;;;5097461;28;20441;-78
2023/08/27 08:10:29;;;;;;;34.47;19.70;;;;;;;;;;5094038;28;20452;-78
2023/08/27 08:12:57;;;;;;;23.97;15.67;;;;;;;;;;5097288;28;20840;-77
2023/08/27 08:15:26;;;;;;;1999.90;999.90;;;;;;;;;;5094260;28;20423;-77
2023/08/27 08:17:53;;;;;;;1999.90;999.90;;;;;;;;;;5097573;28;20488;-77
2023/08/27 08:20:20;;;;;;;107.63;40.00;;;;;;;;;;5094092;28;20830;-77
2023/08/27 08:22:47;;;;;;;346.13;172.03;;;;;;;;;;5093638;28;20476;-77
2023/08/27 08:25:14;;;;;;;45.67;42.67;;;;;;;;;;5094349;28;20440;-77
2023/08/27 08:27:41;;;;;;;34.20;32.30;;;;;;;;;;5094186;28;20419;-77
2023/08/27 08:30:09;;;;;;;32.93;31.07;;;;;;;;;;5094052;28;20445;-77
2023/08/27 08:32:37;;;;;;;35.30;33.10;;;;;;;;;;5094356;28;20472;-78
2023/08/27 08:35:04;;;;;;;35.30;32.90;;;;;;;;;;5094112;28;20449;-76
2023/08/27 08:37:31;;;;;;;36.60;34.07;;;;;;;;;;5094198;28;20780;-76
2023/08/27 08:39:58;;;;;;;33.63;31.60;;;;;;;;;;5092688;28;20448;-77
2023/08/27 08:42:29;;;;;;;32.30;30.40;;;;;;;;;;5093507;28;20469;-77
2023/08/27 08:45:00;;;;;;;81.97;46.87;;;;;;;;;;5093795;28;20880;-77
2023/08/27 08:47:27;;;;;;;35.20;33.10;;;;;;;;;;5094475;28;20440;-77
2023/08/27 08:49:56;;;;;;;33.63;31.67;;;;;;;;;;5093257;28;20457;-78
2023/08/27 08:52:26;;;;;;;35.63;33.40;;;;;;;;;;5093945;28;20471;-78
2023/08/27 08:54:54;;;;;;;34.73;32.83;;;;;;;;;;5093435;28;20431;-78
2023/08/27 08:57:22;;;;;;;34.23;32.07;;;;;;;;;;5093719;28;20489;-77
2023/08/27 08:59:49;;;;;;;33.87;31.53;;;;;;;;;;5092503;28;20416;-77
2023/08/27 09:02:16;;;;;;;32.20;30.00;;;;;;;;;;5093583;28;20469;-77
2023/08/27 09:04:43;;;;;;;33.70;31.10;;;;;;;;;;5093757;28;20464;-78
2023/08/27 09:07:12;;;;;;;33.27;30.87;;;;;;;;;;5093452;28;20459;-77
2023/08/27 09:09:40;;;;;;;30.97;29.00;;;;;;;;;;5093325;28;20445;-77
2023/08/27 09:12:09;;;;;;;30.07;28.30;;;;;;;;;;5093598;28;20475;-76
2023/08/27 09:14:37;;;;;;;31.27;29.37;;;;;;;;;;5095982;28;20427;-77
2023/08/27 09:17:05;;;;;;;30.93;28.90;;;;;;;;;;5094925;28;20522;-76
2023/08/27 09:19:32;;;;;;;29.53;27.60;;;;;;;;;;5094199;28;20504;-77
2023/08/27 09:21:59;;;;;;;29.70;27.80;;;;;;;;;;5092826;28;20445;-77
2023/08/27 09:24:27;;;;;;;27.53;25.50;;;;;;;;;;5094291;28;20426;-76
2023/08/27 09:26:54;;;;;;;27.90;26.10;;;;;;;;;;5093556;28;20417;-77
2023/08/27 09:29:23;;;;;;;28.60;26.80;;;;;;;;;;5093972;28;20411;-77
2023/08/27 09:31:50;;;;;;;27.07;25.37;;;;;;;;;;5093767;28;20423;-78
2023/08/27 09:34:17;;;;;;;28.53;26.90;;;;;;;;;;5094214;28;20445;-77
2023/08/27 09:36:44;;;;;;;27.03;25.53;;;;;;;;;;5094356;28;20441;-77
2023/08/27 09:39:12;;;;;;;27.77;25.77;;;;;;;;;;5099540;28;20929;-76
2023/08/27 09:41:43;;;;;;;27.30;25.90;;;;;;;;;;5092413;28;20411;-77
2023/08/27 09:44:10;;;;;;;26.23;24.73;;;;;;;;;;5093364;28;20437;-77
2023/08/27 09:46:38;;;;;;;28.47;26.40;;;;;;;;;;5093103;28;20449;-77
2023/08/27 09:49:06;;;;;;;27.13;25.53;;;;;;;;;;5094145;28;20446;-77
2023/08/27 09:51:33;;;;;;;29.43;27.57;;;;;;;;;;5093026;28;20453;-79
2023/08/27 09:54:01;;;;;;;137.60;35.23;;;;;;;;;;5093291;28;20464;-76
2023/08/27 09:56:28;;;;;;;32.57;30.47;;;;;;;;;;5094189;28;20449;-77
2023/08/27 09:58:57;;;;;;;27.10;25.37;;;;;;;;;;5092336;28;20508;-77
2023/08/27 10:01:25;;;;;;;29.40;27.50;;;;;;;;;;5091637;28;20962;-77
2023/08/27 10:03:53;;;;;;;28.90;26.87;;;;;;;;;;5091844;28;20815;-77
2023/08/27 10:06:21;;;;;;;27.70;26.10;;;;;;;;;;5092369;28;20555;-77
2023/08/27 10:08:50;;;;;;;28.47;26.57;;;;;;;;;;5092171;28;20480;-77
2023/08/27 10:11:17;;;;;;;29.73;27.83;;;;;;;;;;5091974;28;20496;-77
2023/08/27 10:13:45;;;;;;;29.60;27.80;;;;;;;;;;5096672;28;20507;-77
2023/08/27 10:16:13;;;;;;;28.63;26.93;;;;;;;;;;5095964;28;20404;-77
2023/08/27 10:18:41;;;;;;;28.13;26.43;;;;;;;;;;5095645;28;20563;-77
2023/08/27 10:21:09;;;;;;;27.83;26.03;;;;;;;;;;5093452;28;20991;-78
2023/08/27 10:23:37;;;;;;;29.30;27.20;;;;;;;;;;5095465;28;20540;-76
2023/08/27 10:26:05;;;;;;;28.00;26.30;;;;;;;;;;5095510;28;20448;-77
2023/08/27 10:28:33;;;;;;;28.40;26.43;;;;;;;;;;5095790;28;20813;-77
2023/08/27 10:31:00;;;;;;;28.40;26.70;;;;;;;;;;5094945;28;20449;-77
2023/08/27 10:33:29;;;;;;;26.87;25.27;;;;;;;;;;5095556;28;20471;-77
2023/08/27 10:35:56;;;;;;;27.00;25.50;;;;;;;;;;5095790;28;20415;-77
2023/08/27 10:38:23;;;;;;;27.77;26.17;;;;;;;;;;5095843;28;20455;-77
2023/08/27 10:40:51;;;;;;;26.57;25.07;;;;;;;;;;5095440;28;20456;-77
2023/08/27 10:43:19;;;;;;;26.90;25.10;;;;;;;;;;5096156;28;20472;-77
2023/08/27 10:45:46;;;;;;;26.43;25.03;;;;;;;;;;5095578;28;20447;-78
2023/08/27 10:48:24;;;;;;;26.40;24.90;;;;;;;;;;5095886;28;20447;-77
2023/08/27 10:50:55;;;;;;;27.30;25.70;;;;;;;;;;5095003;28;20527;-77
2023/08/27 10:53:22;;;;;;;25.10;23.73;;;;;;;;;;5096108;28;20504;-77
2023/08/27 10:55:51;;;;;;;27.00;25.30;;;;;;;;;;5095502;28;20507;-78
2023/08/27 10:58:18;;;;;;;27.13;25.50;;;;;;;;;;5095597;28;21275;-77
2023/08/27 11:01:04;;;;;;;26.50;25.00;;;;;;;;;;5094028;28;20468;-77
2023/08/27 11:03:56;;;;;;;25.37;23.77;;;;;;;;;;5094568;28;20464;-76
2023/08/27 11:06:34;;;;;;;24.50;23.20;;;;;;;;;;5094927;28;20999;-77
2023/08/27 11:09:04;;;;;;;24.40;23.10;;;;;;;;;;5095983;28;20404;-77
2023/08/27 11:11:31;;;;;;;25.17;23.47;;;;;;;;;;5095069;28;20429;-77
2023/08/27 11:14:08;;;;;;;24.43;23.10;;;;;;;;;;5096372;28;20484;-77
2023/08/27 11:16:43;;;;;;;25.30;23.70;;;;;;;;;;5096703;28;20472;-78
2023/08/27 11:19:11;;;;;;;24.93;23.10;;;;;;;;;;5097002;28;20937;-77
2023/08/27 11:21:43;;;;;;;24.63;23.33;;;;;;;;;;5093746;28;20491;-77
2023/08/27 11:24:16;;;;;;;24.67;23.30;;;;;;;;;;5092892;28;20453;-77
2023/08/27 11:26:44;;;;;;;23.27;21.73;;;;;;;;;;5094534;28;20414;-78
2023/08/27 11:29:12;;;;;;;24.87;23.47;;;;;;;;;;5094274;28;20440;-77
2023/08/27 11:31:40;;;;;;;23.57;22.30;;;;;;;;;;5093447;28;20454;-77
2023/08/27 11:34:07;;;;;;;25.13;23.63;;;;;;;;;;5094348;28;20851;-77
2023/08/27 11:36:34;;;;;;;23.13;21.83;;;;;;;;;;5100099;28;20423;-77
2023/08/27 11:39:05;;;;;;;22.57;21.27;;;;;;;;;;5098823;28;20458;-78
2023/08/27 11:41:36;;;;;;;23.53;22.20;;;;;;;;;;5095730;28;20439;-77
2023/08/27 11:44:05;;;;;;;23.93;22.43;;;;;;;;;;5097127;28;20467;-77
2023/08/27 11:46:32;;;;;;;22.80;21.50;;;;;;;;;;5100781;28;20431;-77
2023/08/27 11:48:59;;;;;;;23.37;22.00;;;;;;;;;;5098158;28;20469;-77
2023/08/27 11:51:27;;;;;;;24.60;22.73;;;;;;;;;;5098313;28;20415;-78
2023/08/27 11:53:54;;;;;;;23.07;21.63;;;;;;;;;;5101201;28;20469;-79
2023/08/27 11:56:23;;;;;;;22.87;21.37;;;;;;;;;;5097856;28;20456;-77
2023/08/27 11:58:51;;;;;;;22.77;21.47;;;;;;;;;;5097427;28;20489;-77
2023/08/27 12:01:18;;;;;;;21.73;20.53;;;;;;;;;;5096435;28;20476;-77
2023/08/27 12:03:48;;;;;;;22.47;21.17;;;;;;;;;;5097088;28;20477;-77
2023/08/27 12:06:20;;;;;;;23.00;21.57;;;;;;;;;;5098406;28;20480;-77
2023/08/27 12:08:50;;;;;;;21.80;20.50;;;;;;;;;;5097942;28;20436;-77
2023/08/27 12:11:18;;;;;;;22.80;21.23;;;;;;;;;;5097794;28;20445;-76
2023/08/27 12:13:48;;;;;;;21.60;20.40;;;;;;;;;;5098225;28;20486;-76
2023/08/27 12:16:18;;;;;;;20.40;19.30;;;;;;;;;;5097969;28;20441;-76
2023/08/27 12:18:48;;;;;;;21.93;20.67;;;;;;;;;;5099457;28;21023;-76
2023/08/27 12:21:15;;;;;;;21.50;20.20;;;;;;;;;;5096861;28;20441;-77
2023/08/27 12:23:51;;;;;;;21.93;20.73;;;;;;;;;;5097631;28;20456;-76
2023/08/27 12:26:19;;;;;;;21.80;20.70;;;;;;;;;;5095711;28;20480;-77
2023/08/27 12:28:53;;;;;;;21.97;20.87;;;;;;;;;;5097325;28;20488;-77
2023/08/27 12:31:23;;;;;;;21.87;20.67;;;;;;;;;;5095475;28;20766;-76
2023/08/27 12:33:50;;;;;;;22.07;20.70;;;;;;;;;;5093712;28;20469;-78
2023/08/27 12:36:18;;;;;;;22.93;21.63;;;;;;;;;;5098809;28;20425;-76
2023/08/27 12:38:45;;;;;;;22.77;21.43;;;;;;;;;;5099033;28;21302;-76
2023/08/27 12:41:12;;;;;;;22.10;20.80;;;;;;;;;;5100514;28;20468;-77
2023/08/27 12:43:39;;;;;;;20.93;19.63;;;;;;;;;;5100736;28;20469;-76
2023/08/27 12:46:08;;;;;;;22.37;21.20;;;;;;;;;;5098420;28;20433;-76
2023/08/27 12:48:35;;;;;;;22.33;21.03;;;;;;;;;;5093962;28;20424;-76
2023/08/27 12:51:02;;;;;;;22.50;21.20;;;;;;;;;;5092568;28;20472;-77
2023/08/27 12:53:29;;;;;;;22.90;21.40;;;;;;;;;;5094253;28;20918;-76
2023/08/27 12:55:56;;;;;;;22.37;21.07;;;;;;;;;;5095404;28;20444;-77
2023/08/27 12:58:24;;;;;;;22.57;21.27;;;;;;;;;;5094294;28;20455;-76
2023/08/27 13:00:51;;;;;;;21.40;20.20;;;;;;;;;;5093828;28;20459;-77
2023/08/27 13:03:19;;;;;;;21.80;20.60;;;;;;;;;;5094638;28;20471;-76
2023/08/27 13:05:46;;;;;;;21.67;20.47;;;;;;;;;;5094088;28;20423;-76
2023/08/27 13:08:13;;;;;;;21.50;20.30;;;;;;;;;;5093133;28;20427;-76
2023/08/27 13:10:40;;;;;;;21.20;20.10;;;;;;;;;;5093080;28;20463;-77
2023/08/27 13:13:07;;;;;;;21.70;20.27;;;;;;;;;;5093255;28;20472;-77
2023/08/27 13:15:34;;;;;;;21.23;20.07;;;;;;;;;;5093463;28;20479;-78
2023/08/27 13:18:02;;;;;;;20.90;19.80;;;;;;;;;;5093335;28;20546;-76
2023/08/27 13:20:30;;;;;;;21.60;20.30;;;;;;;;;;5092205;28;20468;-77
2023/08/27 13:22:57;;;;;;;20.80;19.70;;;;;;;;;;5092615;28;20483;-77
2023/08/27 13:25:24;;;;;;;21.07;19.90;;;;;;;;;;5095409;28;20445;-77
2023/08/27 13:27:51;;;;;;;20.03;18.83;;;;;;;;;;5094371;28;20430;-77
2023/08/27 13:30:20;;;;;;;20.70;19.60;;;;;;;;;;5092398;28;20881;-77
2023/08/27 13:32:47;;;;;;;20.70;19.60;;;;;;;;;;5094334;28;20480;-77
2023/08/27 13:35:14;;;;;;;22.03;20.83;;;;;;;;;;5095040;28;20448;-77
2023/08/27 13:37:42;;;;;;;20.83;19.73;;;;;;;;;;5092948;28;20452;-77
2023/08/27 13:40:10;;;;;;;20.70;19.47;;;;;;;;;;5093106;28;20569;-77
2023/08/27 13:42:37;;;;;;;21.50;20.30;;;;;;;;;;5093995;28;20472;-77
2023/08/27 13:45:04;;;;;;;21.70;20.50;;;;;;;;;;5093657;28;20476;-77
2023/08/27 13:47:32;;;;;;;21.77;20.57;;;;;;;;;;5091991;28;20425;-78
2023/08/27 13:49:59;;;;;;;21.30;20.20;;;;;;;;;;5091562;28;20543;-77
2023/08/27 13:52:26;;;;;;;22.07;20.87;;;;;;;;;;5091485;28;20480;-77
2023/08/27 13:54:54;;;;;;;22.47;21.17;;;;;;;;;;5092536;28;20919;-77
2023/08/27 13:57:21;;;;;;;21.70;20.40;;;;;;;;;;5095103;28;20479;-79
2023/08/27 13:59:48;;;;;;;21.40;20.27;;;;;;;;;;5096847;28;20988;-78
2023/08/27 14:02:16;;;;;;;21.90;20.80;;;;;;;;;;5096975;28;20468;-78
2023/08/27 14:04:43;;;;;;;22.00;20.90;;;;;;;;;;5094370;28;20460;-77
2023/08/27 14:07:10;;;;;;;22.47;21.27;;;;;;;;;;5094588;28;20422;-77
2023/08/27 14:09:37;;;;;;;22.50;21.30;;;;;;;;;;5092494;28;20445;-78
2023/08/27 14:12:06;;;;;;;22.53;21.23;;;;;;;;;;5093544;28;20553;-77
2023/08/27 14:14:33;;;;;;;21.97;20.77;;;;;;;;;;5092543;28;20441;-76
2023/08/27 14:17:00;;;;;;;22.47;21.17;;;;;;;;;;5097497;28;20420;-78
2023/08/27 14:19:28;;;;;;;22.50;21.20;;;;;;;;;;5095519;28;20567;-77